Time;durP1;ratioP1;P1;durP2;ratioP2;P2;SDS_P1;SDS_P2;PMS_P1;PMS_P2;Temp;Humidity;BMP_temperature;BMP_pressure;BME280_temperature;BME280_humidity;BME280_pressure;Samples;Min_cycle;Max_cycle;Signal;HPM_P1;HPM_P2
2023/01/08 00:01:05;;;;;;;91.35;41.67;;;8.40;99.90;;;;;;6244018;22;20000;-82
2023/01/08 00:03:31;;;;;;;87.75;41.60;;;8.40;99.90;;;;;;6244788;22;20007;-82
2023/01/08 00:06:03;;;;;;;82.05;39.50;;;8.30;99.90;;;;;;6218561;23;20000;-82
2023/01/08 00:08:30;;;;;;;77.30;39.63;;;8.40;99.90;;;;;;6245623;22;20428;-82
2023/01/08 00:10:56;;;;;;;83.85;39.90;;;8.40;99.90;;;;;;6218755;23;20008;-82
2023/01/08 00:13:22;;;;;;;78.28;39.05;;;8.40;99.90;;;;;;6245467;23;20079;-82
2023/01/08 00:15:48;;;;;;;82.10;39.20;;;8.40;99.90;;;;;;6245307;23;20010;-81
2023/01/08 00:18:14;;;;;;;83.88;40.70;;;8.40;99.90;;;;;;6245631;23;20011;-82
2023/01/08 00:20:44;;;;;;;83.97;40.88;;;8.40;99.90;;;;;;6245644;22;20000;-81
2023/01/08 00:23:17;;;;;;;90.72;42.75;;;8.40;99.90;;;;;;6245561;22;20011;-81
2023/01/08 00:25:43;;;;;;;92.10;45.15;;;8.40;99.90;;;;;;6218726;23;20000;-81
2023/01/08 00:28:09;;;;;;;94.78;44.70;;;8.40;99.90;;;;;;6245473;23;20023;-82
2023/01/08 00:30:36;;;;;;;94.82;43.33;;;8.40;99.90;;;;;;6245183;22;20058;-81
2023/01/08 00:33:02;;;;;;;88.80;43.40;;;8.40;99.90;;;;;;6245427;22;20336;-81
2023/01/08 00:35:27;;;;;;;91.32;44.28;;;8.40;99.90;;;;;;6217136;23;20007;-82
2023/01/08 00:37:53;;;;;;;94.38;44.05;;;8.40;99.90;;;;;;6219431;23;20004;-82
2023/01/08 00:40:19;;;;;;;90.20;43.63;;;8.40;99.90;;;;;;6219425;23;20463;-81
2023/01/08 00:42:44;;;;;;;93.15;44.70;;;8.40;99.90;;;;;;6244409;22;20000;-74
2023/01/08 00:45:10;;;;;;;98.38;45.40;;;8.40;99.90;;;;;;6242740;22;20000;-74
2023/01/08 00:47:39;;;;;;;89.00;41.17;;;8.40;99.90;;;;;;6242381;22;20075;-74
2023/01/08 00:50:05;;;;;;;88.25;41.33;;;8.40;99.90;;;;;;6215989;23;20058;-74
2023/01/08 00:52:31;;;;;;;86.10;40.90;;;8.40;99.90;;;;;;6215875;23;20009;-74
2023/01/08 00:54:56;;;;;;;81.03;37.97;;;8.40;99.90;;;;;;6215532;23;20593;-74
2023/01/08 00:57:22;;;;;;;82.15;38.35;;;8.30;99.90;;;;;;6241796;22;20008;-74
2023/01/08 00:59:48;;;;;;;76.32;38.35;;;8.20;99.90;;;;;;6242527;22;20310;-74
2023/01/08 01:02:13;;;;;;;77.30;37.55;;;8.20;99.90;;;;;;6242300;23;20054;-75
2023/01/08 01:04:39;;;;;;;74.45;36.47;;;8.20;99.90;;;;;;6215410;23;20507;-74
2023/01/08 01:07:05;;;;;;;70.28;35.40;;;8.20;99.90;;;;;;6215635;22;20007;-75
2023/01/08 01:09:30;;;;;;;74.97;36.25;;;8.20;99.90;;;;;;6215577;23;20494;-74
2023/01/08 01:11:56;;;;;;;81.07;39.60;;;8.10;99.90;;;;;;6242583;22;20004;-74
2023/01/08 01:14:22;;;;;;;84.35;39.50;;;8.10;99.90;;;;;;6244487;23;20388;-74
2023/01/08 01:16:49;;;;;;;85.78;40.55;;;8.10;99.90;;;;;;6217545;23;20038;-74
2023/01/08 01:19:15;;;;;;;94.38;43.65;;;8.10;99.90;;;;;;6244689;23;20436;-74
2023/01/08 01:21:41;;;;;;;95.13;43.40;;;8.10;99.90;;;;;;6244301;22;20010;-74
2023/01/08 01:24:09;;;;;;;91.45;42.70;;;8.10;99.90;;;;;;6217640;23;20107;-74
2023/01/08 01:26:35;;;;;;;92.65;43.28;;;8.10;99.90;;;;;;6244621;22;20004;-74
2023/01/08 01:29:01;;;;;;;87.18;40.75;;;8.20;99.90;;;;;;6244455;22;20126;-76
2023/01/08 01:31:29;;;;;;;81.57;39.72;;;8.20;99.90;;;;;;6244463;23;20023;-74
2023/01/08 01:33:55;;;;;;;84.70;40.70;;;8.20;99.90;;;;;;6244557;22;19996;-74
2023/01/08 01:36:22;;;;;;;78.95;38.92;;;8.20;99.90;;;;;;6244124;23;20306;-74
2023/01/08 01:38:50;;;;;;;80.82;39.83;;;8.20;99.90;;;;;;6217744;23;20007;-74
2023/01/08 01:41:45;;;;;;;81.95;39.78;;;8.20;99.90;;;;;;6217774;23;20000;-74
2023/01/08 01:44:34;;;;;;;82.82;41.35;;;8.10;99.90;;;;;;6244499;23;20079;-75
2023/01/08 01:47:04;;;;;;;71.90;38.88;;;8.20;99.90;;;;;;6244192;22;20008;-74
2023/01/08 01:49:31;;;;;;;74.45;37.00;;;8.20;99.90;;;;;;6244321;22;20000;-74
2023/01/08 01:52:01;;;;;;;78.93;38.40;;;8.20;99.90;;;;;;6244502;22;20012;-74
2023/01/08 01:54:28;;;;;;;78.57;39.20;;;8.20;99.90;;;;;;6217573;23;20004;-74
2023/01/08 01:56:55;;;;;;;67.53;36.28;;;8.20;99.90;;;;;;6243915;22;20053;-75
2023/01/08 01:59:21;;;;;;;71.47;38.13;;;8.30;99.90;;;;;;6244226;22;20440;-74
2023/01/08 02:01:47;;;;;;;77.57;36.45;;;8.30;99.90;;;;;;6244109;22;20011;-75
2023/01/08 02:04:13;;;;;;;67.90;35.78;;;8.30;99.90;;;;;;6244354;22;20122;-74
2023/01/08 02:06:51;;;;;;;70.72;38.08;;;8.30;99.90;;;;;;6244054;22;20024;-75
2023/01/08 02:09:29;;;;;;;63.67;35.47;;;8.30;99.90;;;;;;6217248;23;20027;-74
2023/01/08 02:12:17;;;;;;;61.90;33.78;;;8.30;99.90;;;;;;6217227;23;20444;-75
2023/01/08 02:15:04;;;;;;;64.30;34.47;;;8.30;99.90;;;;;;6217433;23;20011;-75
2023/01/08 02:17:46;;;;;;;64.70;35.17;;;8.30;99.90;;;;;;6217230;23;20040;-74
2023/01/08 02:20:18;;;;;;;66.35;35.05;;;8.40;99.90;;;;;;6244043;22;20437;-74
2023/01/08 02:23:20;;;;;;;72.68;38.60;;;8.30;99.90;;;;;;6217251;23;20054;-74
2023/01/08 02:26:04;;;;;;;78.38;39.25;;;8.30;99.90;;;;;;6244077;22;20000;-74
2023/01/08 02:28:35;;;;;;;79.95;40.08;;;8.20;99.90;;;;;;6243942;22;20007;-74
2023/01/08 02:31:01;;;;;;;82.57;38.97;;;8.20;99.90;;;;;;6243526;22;20012;-75
2023/01/08 02:33:29;;;;;;;83.60;40.42;;;8.20;99.90;;;;;;6243788;22;20000;-74
2023/01/08 02:36:16;;;;;;;75.72;37.53;;;8.20;99.90;;;;;;6243920;22;20424;-74
2023/01/08 02:39:00;;;;;;;80.47;40.38;;;8.30;99.90;;;;;;6244009;23;20033;-75
2023/01/08 02:41:53;;;;;;;75.95;38.63;;;8.30;99.90;;;;;;6243934;22;20007;-74
2023/01/08 02:44:33;;;;;;;78.80;38.17;;;8.30;99.90;;;;;;6217248;23;20015;-74
2023/01/08 02:47:01;;;;;;;84.47;41.03;;;8.30;99.90;;;;;;6243772;22;20000;-74
2023/01/08 02:49:31;;;;;;;80.32;40.50;;;8.30;99.90;;;;;;6243613;23;20034;-74
2023/01/08 02:51:59;;;;;;;79.93;39.42;;;8.30;99.90;;;;;;6217136;23;20008;-74
2023/01/08 02:54:30;;;;;;;88.43;41.20;;;8.30;99.90;;;;;;6244001;23;19996;-74
2023/01/08 02:57:04;;;;;;;82.00;39.40;;;8.30;99.90;;;;;;6244012;23;20090;-74
2023/01/08 02:59:32;;;;;;;83.72;40.90;;;8.30;99.90;;;;;;6243971;22;20035;-74
2023/01/08 03:02:00;;;;;;;83.63;41.00;;;8.30;99.90;;;;;;6243565;22;20057;-75
2023/01/08 03:04:29;;;;;;;85.85;39.47;;;8.20;99.90;;;;;;6243823;22;20000;-74
2023/01/08 03:06:56;;;;;;;82.43;38.90;;;8.20;99.90;;;;;;6243662;22;20004;-74
2023/01/08 03:09:22;;;;;;;79.07;39.00;;;8.30;99.90;;;;;;6243777;22;20015;-74
2023/01/08 03:12:13;;;;;;;77.90;39.05;;;8.30;99.90;;;;;;6243915;22;20070;-74
2023/01/08 03:14:49;;;;;;;80.20;39.20;;;8.30;99.90;;;;;;6216598;23;20392;-74
2023/01/08 03:17:24;;;;;;;84.93;39.75;;;8.40;99.90;;;;;;6243628;22;20000;-74
2023/01/08 03:19:54;;;;;;;79.60;37.85;;;8.40;99.90;;;;;;6243518;22;20432;-74
2023/01/08 03:22:22;;;;;;;72.07;38.08;;;8.40;99.90;;;;;;6243739;22;20003;-74
2023/01/08 03:24:52;;;;;;;77.90;39.05;;;8.40;99.90;;;;;;6243808;22;20004;-74
2023/01/08 03:27:21;;;;;;;81.65;39.40;;;8.30;99.90;;;;;;6216861;23;20004;-74
2023/01/08 03:29:50;;;;;;;79.53;39.08;;;8.40;99.90;;;;;;6243630;22;20460;-74
2023/01/08 03:32:17;;;;;;;74.57;36.80;;;8.30;99.90;;;;;;6243556;23;20060;-74
2023/01/08 03:34:46;;;;;;;72.85;36.72;;;8.40;99.90;;;;;;6243975;23;20027;-74
2023/01/08 03:37:13;;;;;;;76.15;38.78;;;8.40;99.90;;;;;;6216848;23;20008;-74
2023/01/08 03:39:54;;;;;;;80.28;38.83;;;8.40;99.90;;;;;;6243854;22;20313;-74
2023/01/08 03:42:21;;;;;;;74.65;37.17;;;8.40;99.90;;;;;;6217025;22;20008;-74
2023/01/08 03:44:47;;;;;;;72.55;37.13;;;8.40;99.90;;;;;;6244017;22;20004;-74
2023/01/08 03:47:14;;;;;;;74.72;37.38;;;8.40;99.90;;;;;;6243838;22;20094;-74
2023/01/08 03:49:42;;;;;;;76.45;38.05;;;8.40;99.90;;;;;;6243714;23;20007;-75
2023/01/08 03:52:08;;;;;;;75.57;39.13;;;8.40;99.90;;;;;;6244123;23;19996;-74
2023/01/08 03:54:35;;;;;;;74.47;37.75;;;8.40;99.90;;;;;;6244628;22;20000;-74
2023/01/08 03:57:01;;;;;;;71.53;36.47;;;8.40;99.90;;;;;;6244244;22;20073;-74
2023/01/08 03:59:27;;;;;;;72.20;38.42;;;8.30;99.90;;;;;;6243862;23;20000;-74
2023/01/08 04:01:53;;;;;;;72.28;35.28;;;8.30;99.90;;;;;;6216789;23;20015;-74
2023/01/08 04:04:19;;;;;;;68.70;35.50;;;8.30;99.90;;;;;;6216974;23;20000;-74
2023/01/08 04:06:47;;;;;;;72.60;37.63;;;8.30;99.90;;;;;;6243839;22;20395;-74
2023/01/08 04:09:16;;;;;;;78.80;38.28;;;8.20;99.90;;;;;;6216892;23;20011;-74
2023/01/08 04:11:41;;;;;;;76.03;37.92;;;8.20;99.90;;;;;;6216928;23;20010;-75
2023/01/08 04:14:07;;;;;;;76.05;37.92;;;8.10;99.90;;;;;;6243712;22;20460;-74
2023/01/08 04:16:33;;;;;;;79.18;37.25;;;8.10;99.90;;;;;;6216522;23;19996;-74
2023/01/08 04:18:59;;;;;;;74.70;37.20;;;8.20;99.90;;;;;;6243403;22;20022;-74
2023/01/08 04:21:24;;;;;;;75.88;38.88;;;8.10;99.90;;;;;;6245044;22;20495;-74
2023/01/08 04:23:50;;;;;;;81.57;39.25;;;8.20;99.90;;;;;;6218602;23;20087;-74
2023/01/08 04:26:16;;;;;;;71.68;36.63;;;8.10;99.90;;;;;;6245313;22;19996;-74
2023/01/08 04:28:44;;;;;;;72.38;36.85;;;8.20;99.90;;;;;;6245574;23;20437;-74
2023/01/08 04:31:10;;;;;;;72.97;37.03;;;8.20;99.90;;;;;;6245075;22;20040;-74
2023/01/08 04:33:36;;;;;;;69.20;35.90;;;8.20;99.90;;;;;;6218367;23;20011;-74
2023/01/08 04:36:02;;;;;;;73.13;36.50;;;8.20;99.90;;;;;;6245272;22;20008;-74
2023/01/08 04:38:28;;;;;;;79.45;38.25;;;8.10;99.90;;;;;;6245301;22;20011;-74
2023/01/08 04:40:58;;;;;;;70.00;37.20;;;8.10;99.90;;;;;;6245244;22;20000;-74
2023/01/08 04:43:24;;;;;;;70.53;36.78;;;8.10;99.90;;;;;;6245282;22;20013;-74
2023/01/08 04:45:50;;;;;;;54.65;26.73;;;8.20;99.90;;;;;;6244986;22;20050;-74
2023/01/08 04:48:15;;;;;;;74.65;37.47;;;8.20;99.90;;;;;;6245140;22;20000;-74
2023/01/08 04:50:41;;;;;;;71.53;36.05;;;8.20;99.90;;;;;;6218415;22;20000;-74
2023/01/08 04:53:09;;;;;;;66.80;35.58;;;8.30;99.90;;;;;;6218336;23;20007;-74
2023/01/08 04:55:35;;;;;;;74.10;35.67;;;8.30;99.90;;;;;;6245096;22;20004;-74
2023/01/08 04:58:00;;;;;;;72.05;35.28;;;8.20;99.90;;;;;;6245074;22;20015;-74
2023/01/08 05:00:26;;;;;;;75.05;37.88;;;8.30;99.90;;;;;;6245009;23;20004;-74
2023/01/08 05:02:52;;;;;;;64.78;34.72;;;8.20;99.90;;;;;;6244811;22;20012;-74
2023/01/08 05:05:17;;;;;;;70.85;36.28;;;8.30;99.90;;;;;;6244994;22;20000;-74
2023/01/08 05:07:43;;;;;;;69.00;36.25;;;8.30;99.90;;;;;;6217933;23;20035;-74
2023/01/08 05:10:09;;;;;;;73.65;35.03;;;8.30;99.90;;;;;;6218195;23;20004;-74
2023/01/08 05:12:35;;;;;;;76.85;39.38;;;8.30;99.90;;;;;;6244816;23;20081;-75
2023/01/08 05:15:00;;;;;;;75.30;38.00;;;8.30;99.90;;;;;;6217978;23;20046;-74
2023/01/08 05:17:26;;;;;;;68.45;35.22;;;8.30;99.90;;;;;;6245268;22;20466;-74
2023/01/08 05:19:55;;;;;;;70.30;37.28;;;8.30;99.90;;;;;;6246054;22;20000;-74
2023/01/08 05:22:21;;;;;;;68.53;35.88;;;8.40;99.90;;;;;;6246359;23;20079;-74
2023/01/08 05:24:46;;;;;;;69.10;34.92;;;8.30;99.90;;;;;;6246412;22;20030;-74
2023/01/08 05:27:12;;;;;;;75.43;36.55;;;8.30;99.90;;;;;;6246015;22;20027;-74
2023/01/08 05:29:38;;;;;;;73.05;36.83;;;8.40;99.90;;;;;;6245957;22;20016;-74
2023/01/08 05:32:05;;;;;;;71.57;36.53;;;8.40;99.90;;;;;;6244350;23;20057;-74
2023/01/08 05:34:31;;;;;;;71.57;37.08;;;8.40;99.90;;;;;;6245111;22;20010;-74
2023/01/08 05:36:56;;;;;;;68.25;35.55;;;8.40;99.90;;;;;;6245450;23;20079;-74
2023/01/08 05:39:22;;;;;;;72.65;35.40;;;8.30;99.90;;;;;;6245657;23;20001;-74
2023/01/08 05:41:48;;;;;;;75.05;36.17;;;8.30;99.90;;;;;;6218057;23;20008;-74
2023/01/08 05:44:13;;;;;;;70.15;35.65;;;8.30;99.90;;;;;;6218482;23;20026;-74
2023/01/08 05:46:39;;;;;;;80.40;38.20;;;8.30;99.90;;;;;;6218761;22;20011;-74
2023/01/08 05:49:05;;;;;;;80.43;37.65;;;8.30;99.90;;;;;;6219022;22;20000;-74
2023/01/08 05:51:30;;;;;;;80.40;38.05;;;8.30;99.90;;;;;;6246023;22;20071;-74
2023/01/08 05:53:56;;;;;;;81.03;37.45;;;8.30;99.90;;;;;;6245960;22;20023;-74
2023/01/08 05:56:22;;;;;;;80.18;38.83;;;8.30;99.90;;;;;;6219046;23;20324;-74
2023/01/08 05:58:47;;;;;;;84.07;37.88;;;8.30;99.90;;;;;;6218742;23;20091;-74
2023/01/08 06:01:16;;;;;;;87.30;40.53;;;8.40;99.90;;;;;;6245576;22;20011;-74
2023/01/08 06:03:42;;;;;;;91.85;40.15;;;8.40;99.90;;;;;;6245767;22;20031;-74
2023/01/08 06:06:09;;;;;;;92.90;41.58;;;8.40;99.90;;;;;;6245670;22;20007;-74
2023/01/08 06:08:35;;;;;;;98.43;42.10;;;8.40;99.90;;;;;;6219018;23;20000;-75
2023/01/08 06:11:04;;;;;;;87.05;37.95;;;8.50;99.90;;;;;;6245685;23;19996;-74
2023/01/08 06:13:30;;;;;;;87.53;38.53;;;8.40;99.90;;;;;;6245566;22;20000;-74
2023/01/08 06:15:59;;;;;;;76.35;38.40;;;8.40;99.90;;;;;;6245208;22;20004;-74
2023/01/08 06:18:25;;;;;;;80.78;37.80;;;8.40;99.90;;;;;;6245253;22;20004;-74
2023/01/08 06:20:51;;;;;;;83.60;38.97;;;8.40;99.90;;;;;;6245504;23;20010;-74
2023/01/08 06:23:17;;;;;;;78.78;37.78;;;8.40;99.90;;;;;;6245464;22;20046;-74
2023/01/08 06:25:42;;;;;;;72.88;36.72;;;8.40;99.90;;;;;;6218407;22;20004;-74
2023/01/08 06:28:08;;;;;;;74.35;37.38;;;8.40;99.90;;;;;;6245474;22;19994;-74
2023/01/08 06:30:34;;;;;;;71.15;37.17;;;8.40;99.90;;;;;;6245251;22;20095;-74
2023/01/08 06:33:00;;;;;;;77.18;38.45;;;8.40;99.90;;;;;;6245440;22;20000;-74
2023/01/08 06:35:26;;;;;;;77.55;37.25;;;8.40;99.90;;;;;;6245520;23;20000;-74
2023/01/08 06:37:55;;;;;;;74.47;36.20;;;8.40;99.90;;;;;;6245349;23;20088;-74
2023/01/08 06:40:22;;;;;;;84.68;38.58;;;8.40;99.90;;;;;;6245382;23;20000;-74
2023/01/08 06:42:47;;;;;;;78.03;38.53;;;8.40;99.90;;;;;;6245267;22;20098;-75
2023/01/08 06:45:13;;;;;;;75.90;37.58;;;8.40;99.90;;;;;;6218593;22;20035;-74
2023/01/08 06:47:39;;;;;;;77.78;37.78;;;8.40;99.90;;;;;;6218605;23;20091;-75
2023/01/08 06:50:05;;;;;;;77.88;38.00;;;8.40;99.90;;;;;;6245492;22;19996;-74
2023/01/08 06:52:31;;;;;;;81.55;39.33;;;8.40;99.90;;;;;;6245207;22;20004;-74
2023/01/08 06:54:57;;;;;;;73.03;38.03;;;8.40;99.90;;;;;;6245207;23;20000;-74
2023/01/08 06:57:23;;;;;;;78.63;37.50;;;8.30;99.90;;;;;;6218392;23;20004;-74
2023/01/08 06:59:48;;;;;;;73.35;36.83;;;8.30;99.90;;;;;;6245483;23;20000;-74
2023/01/08 07:02:15;;;;;;;70.97;36.10;;;8.40;99.90;;;;;;6218269;23;20087;-74
2023/01/08 07:04:41;;;;;;;72.72;36.20;;;8.40;99.90;;;;;;6218318;23;20009;-74
2023/01/08 07:07:07;;;;;;;65.50;33.83;;;8.30;99.90;;;;;;6218717;23;20305;-74
2023/01/08 07:09:34;;;;;;;67.05;34.85;;;8.40;99.90;;;;;;6245167;22;20000;-74
2023/01/08 07:12:00;;;;;;;65.60;33.78;;;8.40;99.90;;;;;;6244966;23;20086;-74
2023/01/08 07:14:25;;;;;;;74.10;36.22;;;8.40;99.90;;;;;;6245042;22;20032;-74
2023/01/08 07:16:51;;;;;;;72.68;36.05;;;8.40;99.90;;;;;;6217934;23;20425;-74
2023/01/08 07:19:17;;;;;;;73.03;36.45;;;8.40;99.90;;;;;;6218144;23;20044;-74
2023/01/08 07:21:42;;;;;;;74.57;33.92;;;8.40;99.90;;;;;;6245044;22;20079;-74
2023/01/08 07:24:08;;;;;;;69.50;34.97;;;8.40;99.90;;;;;;6245002;23;20079;-74
2023/01/08 07:26:34;;;;;;;70.88;36.08;;;8.40;99.90;;;;;;6244975;23;20000;-74
2023/01/08 07:29:00;;;;;;;73.22;37.40;;;8.40;99.90;;;;;;6245247;22;20079;-74
2023/01/08 07:31:26;;;;;;;71.05;35.17;;;8.50;99.90;;;;;;6244764;22;20130;-74
2023/01/08 07:33:51;;;;;;;76.22;35.58;;;8.50;99.90;;;;;;6218345;23;20035;-74
2023/01/08 07:36:21;;;;;;;78.40;35.47;;;8.50;99.90;;;;;;6244904;22;20008;-74
2023/01/08 07:38:48;;;;;;;81.10;38.55;;;8.50;99.90;;;;;;6218341;23;20014;-74
2023/01/08 07:41:15;;;;;;;86.07;39.58;;;8.40;99.90;;;;;;6245311;23;20046;-74
2023/01/08 07:43:40;;;;;;;79.00;38.25;;;8.30;99.90;;;;;;6245206;22;20384;-74
2023/01/08 07:46:06;;;;;;;76.13;39.10;;;8.30;99.90;;;;;;6217985;23;20004;-74
2023/01/08 07:48:32;;;;;;;76.68;38.58;;;8.40;99.90;;;;;;6244923;22;20000;-74
2023/01/08 07:51:02;;;;;;;78.05;37.88;;;8.40;99.90;;;;;;6245300;22;20059;-74
2023/01/08 07:53:28;;;;;;;77.32;37.88;;;8.40;99.90;;;;;;6244997;22;20331;-74
2023/01/08 07:56:06;;;;;;;73.00;37.33;;;8.40;99.90;;;;;;6246135;22;20023;-74
2023/01/08 07:58:32;;;;;;;72.43;35.05;;;8.40;99.90;;;;;;6247004;22;20008;-74
2023/01/08 08:00:58;;;;;;;73.90;35.20;;;8.40;99.90;;;;;;6220301;23;20012;-74
2023/01/08 08:03:23;;;;;;;72.05;36.65;;;8.40;99.90;;;;;;6246667;23;20014;-74
2023/01/08 08:05:50;;;;;;;73.60;35.63;;;8.50;99.90;;;;;;6246807;23;20075;-74
2023/01/08 08:08:18;;;;;;;76.32;36.58;;;8.40;99.90;;;;;;6246978;22;20436;-74
2023/01/08 08:10:48;;;;;;;86.45;40.00;;;8.40;99.90;;;;;;6247123;22;20001;-74
2023/01/08 08:13:13;;;;;;;83.82;42.53;;;8.30;99.90;;;;;;6219833;23;20011;-74
2023/01/08 08:15:40;;;;;;;91.95;43.72;;;8.30;99.90;;;;;;6246792;22;20004;-74
2023/01/08 08:18:06;;;;;;;90.30;43.05;;;8.40;99.90;;;;;;6246924;22;20438;-74
2023/01/08 08:20:35;;;;;;;90.20;42.95;;;8.40;99.90;;;;;;6220021;23;20008;-74
2023/01/08 08:23:13;;;;;;;109.50;51.00;;;8.40;99.90;;;;;;6219909;23;20487;-74
2023/01/08 08:25:40;;;;;;;109.97;53.05;;;8.40;99.90;;;;;;6246610;23;20001;-74
2023/01/08 08:28:06;;;;;;;96.32;47.83;;;8.40;99.90;;;;;;6246735;23;20443;-74
2023/01/08 08:30:33;;;;;;;90.32;41.75;;;8.40;99.90;;;;;;6246636;22;20087;-74
2023/01/08 08:33:00;;;;;;;81.05;39.35;;;8.40;99.90;;;;;;6246689;22;20434;-74
2023/01/08 08:35:26;;;;;;;72.00;37.92;;;8.50;99.90;;;;;;6246731;22;20007;-74
2023/01/08 08:37:56;;;;;;;73.57;38.55;;;8.50;99.90;;;;;;6246491;22;19996;-74
2023/01/08 08:40:22;;;;;;;74.75;38.63;;;8.50;99.90;;;;;;6246626;22;20495;-74
2023/01/08 08:43:03;;;;;;;77.50;38.40;;;8.50;99.90;;;;;;6246664;22;20429;-74
2023/01/08 08:45:32;;;;;;;81.50;41.78;;;8.50;99.90;;;;;;6246438;23;20635;-74
2023/01/08 08:47:57;;;;;;;86.45;42.53;;;8.60;99.90;;;;;;6246194;23;20054;-74
2023/01/08 08:50:23;;;;;;;84.85;41.75;;;8.50;99.90;;;;;;6246247;22;20375;-74
2023/01/08 08:52:49;;;;;;;76.22;39.72;;;8.60;99.90;;;;;;6219428;23;20004;-74
2023/01/08 08:55:16;;;;;;;76.72;38.72;;;8.60;99.90;;;;;;6219311;22;20008;-74
2023/01/08 08:57:43;;;;;;;76.93;40.08;;;8.60;99.90;;;;;;6246619;22;20004;-74
2023/01/08 09:00:12;;;;;;;80.10;41.88;;;8.60;99.90;;;;;;6246422;23;20042;-74
2023/01/08 09:02:38;;;;;;;72.15;39.92;;;8.60;99.90;;;;;;6246085;22;20004;-74
2023/01/08 09:05:05;;;;;;;67.10;36.90;;;8.60;99.90;;;;;;6246453;22;20007;-75
2023/01/08 09:07:30;;;;;;;70.32;38.47;;;8.60;99.90;;;;;;6246395;22;19996;-74
2023/01/08 09:09:56;;;;;;;56.20;32.67;;;8.70;99.90;;;;;;6246360;22;20007;-74
2023/01/08 09:12:22;;;;;;;62.42;33.72;;;8.70;99.90;;;;;;6246585;22;20000;-75
2023/01/08 09:14:49;;;;;;;61.55;32.10;;;8.80;99.90;;;;;;6246096;22;20008;-74
2023/01/08 09:17:14;;;;;;;45.33;27.20;;;8.80;99.90;;;;;;6246074;23;20000;-74
2023/01/08 09:19:40;;;;;;;45.17;26.60;;;8.80;99.90;;;;;;6219170;23;20058;-74
2023/01/08 09:22:06;;;;;;;57.13;31.58;;;8.80;99.90;;;;;;6246190;22;20046;-74
2023/01/08 09:24:31;;;;;;;64.72;32.97;;;8.80;99.90;;;;;;6246239;22;20003;-74
2023/01/08 09:26:58;;;;;;;64.45;32.42;;;8.80;99.90;;;;;;6246046;22;20054;-74
2023/01/08 09:29:24;;;;;;;73.03;35.67;;;8.80;99.90;;;;;;6246071;22;20057;-74
2023/01/08 09:31:50;;;;;;;72.07;36.90;;;8.80;99.90;;;;;;6218924;23;20079;-74
2023/01/08 09:34:15;;;;;;;74.88;37.53;;;8.80;99.90;;;;;;6245599;23;20428;-74
2023/01/08 09:36:41;;;;;;;88.95;42.13;;;8.80;99.90;;;;;;6245210;22;19996;-74
2023/01/08 09:39:08;;;;;;;81.32;42.67;;;8.70;99.90;;;;;;6218546;23;20432;-74
2023/01/08 09:41:38;;;;;;;91.47;42.38;;;8.80;99.90;;;;;;6245325;22;20050;-74
2023/01/08 09:44:05;;;;;;;84.50;41.53;;;8.80;99.90;;;;;;6245180;23;20035;-74
2023/01/08 09:46:31;;;;;;;83.25;41.38;;;8.80;99.90;;;;;;6216964;23;20000;-74
2023/01/08 09:49:03;;;;;;;76.32;37.92;;;8.80;99.90;;;;;;6217574;23;20011;-74
2023/01/08 09:51:36;;;;;;;78.47;38.33;;;8.80;99.90;;;;;;6244762;22;20547;-74
2023/01/08 09:54:04;;;;;;;77.25;38.40;;;8.80;99.90;;;;;;6244781;22;20008;-74
2023/01/08 09:56:32;;;;;;;82.60;40.50;;;8.80;99.90;;;;;;6217635;23;20057;-74
2023/01/08 09:59:01;;;;;;;79.03;38.88;;;8.90;99.90;;;;;;6245400;22;20008;-74
2023/01/08 10:01:38;;;;;;;81.97;41.50;;;8.90;99.90;;;;;;6245645;23;20004;-74
2023/01/08 10:04:13;;;;;;;85.03;38.97;;;8.90;99.90;;;;;;6245767;23;20000;-74
2023/01/08 10:06:54;;;;;;;78.85;40.28;;;8.90;99.90;;;;;;6218271;23;20008;-74
2023/01/08 10:09:27;;;;;;;77.67;40.03;;;8.80;99.90;;;;;;6245386;22;20003;-79
2023/01/08 10:11:58;;;;;;;72.93;38.88;;;8.90;99.90;;;;;;6245337;23;20219;-80
2023/01/08 10:14:30;;;;;;;73.93;39.90;;;8.90;99.90;;;;;;6217769;23;20004;-80
2023/01/08 10:16:57;;;;;;;;;;;8.90;99.90;;;;;;6245136;23;20376;-79
2023/01/08 10:19:23;;;;;;;74.28;38.63;;;8.90;99.90;;;;;;6244598;22;19907;-79
2023/01/08 10:21:49;;;;;;;75.28;39.47;;;8.90;99.90;;;;;;6218437;22;20008;-74
2023/01/08 10:24:15;;;;;;;74.75;37.13;;;8.90;99.90;;;;;;6244756;22;20003;-74
2023/01/08 10:26:40;;;;;;;75.18;40.15;;;9.00;99.90;;;;;;6244501;22;20000;-74
2023/01/08 10:29:15;;;;;;;73.70;37.83;;;9.00;99.90;;;;;;6244529;22;20127;-74
2023/01/08 10:31:57;;;;;;;78.75;39.67;;;9.00;99.90;;;;;;6245148;22;20071;-74
2023/01/08 10:34:40;;;;;;;75.03;39.03;;;9.00;99.90;;;;;;6244758;22;20046;-74
2023/01/08 10:37:26;;;;;;;72.70;38.33;;;9.00;99.90;;;;;;6245181;22;20004;-74
2023/01/08 10:39:54;;;;;;;77.68;39.15;;;9.00;99.90;;;;;;6244407;22;20052;-74
2023/01/08 10:42:22;;;;;;;79.45;39.67;;;9.00;99.90;;;;;;6217207;23;20009;-74
2023/01/08 10:44:52;;;;;;;76.35;38.80;;;9.00;99.90;;;;;;6244400;22;20079;-74
2023/01/08 10:47:18;;;;;;;74.45;39.85;;;8.90;99.90;;;;;;6244565;22;20000;-74
2023/01/08 10:49:49;;;;;;;83.00;40.65;;;8.90;99.90;;;;;;6244594;22;20443;-74
2023/01/08 10:52:27;;;;;;;;;;;8.90;99.90;;;;;;6217196;22;20439;-74
2023/01/08 10:54:53;;;;;;;81.65;41.58;;;8.90;99.90;;;;;;6244045;23;19899;-74
2023/01/08 10:57:25;;;;;;;79.75;42.95;;;8.90;99.90;;;;;;6217671;23;20004;-79
2023/01/08 10:59:51;;;;;;;74.95;41.17;;;8.90;99.90;;;;;;6244861;22;20030;-79
2023/01/08 11:02:37;;;;;;;77.35;41.47;;;9.00;99.90;;;;;;6244227;22;20004;-79
2023/01/08 11:05:06;;;;;;;73.40;40.65;;;9.00;99.90;;;;;;6244667;22;20000;-79
2023/01/08 11:07:34;;;;;;;76.80;40.42;;;9.00;99.90;;;;;;6244119;22;20003;-79
2023/01/08 11:10:01;;;;;;;79.65;42.45;;;8.90;99.90;;;;;;6218196;23;20587;-79
2023/01/08 11:12:35;;;;;;;74.65;39.65;;;8.90;99.90;;;;;;6217554;23;20471;-80
2023/01/08 11:15:03;;;;;;;78.57;40.22;;;8.90;99.90;;;;;;6217684;23;20027;-79
2023/01/08 11:17:29;;;;;;;73.40;40.03;;;9.00;99.90;;;;;;6243874;22;20070;-79
2023/01/08 11:20:09;;;;;;;72.82;39.72;;;9.00;99.90;;;;;;6244335;22;20001;-80
2023/01/08 11:22:34;;;;;;;72.35;40.53;;;9.00;99.90;;;;;;6244290;22;20130;-80
2023/01/08 11:25:00;;;;;;;72.97;39.83;;;9.00;99.90;;;;;;6244717;23;20039;-80
2023/01/08 11:27:29;;;;;;;74.82;39.53;;;9.00;99.90;;;;;;6217861;23;20000;-80
2023/01/08 11:29:59;;;;;;;72.68;38.78;;;9.00;99.90;;;;;;6244779;22;20015;-80
2023/01/08 11:32:39;;;;;;;73.68;37.63;;;9.00;99.90;;;;;;6246753;23;20015;-80
2023/01/08 11:35:31;;;;;;;64.80;35.03;;;9.10;99.90;;;;;;6220077;23;20008;-80
2023/01/08 11:38:01;;;;;;;68.28;36.45;;;9.10;99.90;;;;;;6245600;23;20066;-80
2023/01/08 11:40:45;;;;;;;72.45;37.47;;;9.10;99.90;;;;;;6246724;22;20302;-80
2023/01/08 11:43:20;;;;;;;68.55;37.17;;;9.10;99.90;;;;;;6246648;22;20004;-80
2023/01/08 11:46:21;;;;;;;62.85;35.42;;;9.00;99.90;;;;;;6246630;22;20424;-80
2023/01/08 11:49:26;;;;;;;75.22;39.28;;;9.00;99.90;;;;;;6219166;23;20003;-80
2023/01/08 11:52:11;;;;;;;73.60;39.42;;;9.00;99.90;;;;;;6246525;22;20003;-80
2023/01/08 11:54:42;;;;;;;77.25;41.35;;;9.00;99.90;;;;;;6246603;22;20065;-79
2023/01/08 11:57:17;;;;;;;67.53;38.47;;;9.00;99.90;;;;;;6245720;22;20039;-79
2023/01/08 12:00:18;;;;;;;69.57;37.50;;;9.00;99.90;;;;;;6219674;23;20088;-79
2023/01/08 12:02:57;;;;;;;53.47;31.77;;;9.00;99.90;;;;;;6188553;23;20008;-80
2023/01/08 12:05:54;;;;;;;53.72;31.98;;;9.10;99.90;;;;;;6246794;22;20007;-79
2023/01/08 12:08:54;;;;;;;59.83;34.72;;;9.10;99.90;;;;;;6212212;23;20008;-79
2023/01/08 12:11:29;;;;;;;59.55;34.38;;;9.10;99.90;;;;;;6219736;22;20004;-79
2023/01/08 12:14:31;;;;;;;69.85;37.53;;;9.10;99.90;;;;;;6247161;22;20468;-78
2023/01/08 12:17:23;;;;;;;68.13;37.38;;;9.10;99.90;;;;;;6247199;22;20000;-79
2023/01/08 12:19:59;;;;;;;69.28;36.28;;;9.10;99.90;;;;;;6246432;22;20054;-80
2023/01/08 12:22:38;;;;;;;59.90;35.00;;;9.00;99.90;;;;;;6246662;22;20004;-80
2023/01/08 12:25:03;;;;;;;68.38;38.78;;;9.10;99.90;;;;;;6220031;23;20046;-79
2023/01/08 12:27:38;;;;;;;69.50;39.38;;;9.10;99.90;;;;;;6246792;22;19996;-79
2023/01/08 12:30:32;;;;;;;64.80;36.38;;;9.00;99.90;;;;;;6214631;23;20429;-79
2023/01/08 12:33:10;;;;;;;70.78;39.35;;;9.00;99.90;;;;;;6214980;23;20009;-79
2023/01/08 12:35:49;;;;;;;67.65;38.22;;;9.00;99.90;;;;;;6216771;23;20000;-79
2023/01/08 12:38:32;;;;;;;75.55;39.40;;;9.00;99.90;;;;;;6216775;23;20027;-80
2023/01/08 12:41:02;;;;;;;69.70;37.97;;;8.90;99.90;;;;;;6215996;23;20012;-79
2023/01/08 12:43:35;;;;;;;69.55;39.42;;;8.90;99.90;;;;;;6216406;23;20393;-79
2023/01/08 12:46:02;;;;;;;62.30;35.95;;;8.80;99.90;;;;;;6214939;23;20001;-79
2023/01/08 12:48:30;;;;;;;71.43;39.08;;;8.80;99.90;;;;;;6216441;23;20011;-79
2023/01/08 12:50:58;;;;;;;69.97;36.60;;;8.70;99.90;;;;;;6216580;23;20001;-79